createdAt,value
2019-03-15T00:01:18.932Z,45.83
2019-03-15T00:03:26.579Z,50.60
2019-03-15T00:05:34.232Z,53.75
2019-03-15T00:07:41.861Z,56.18
2019-03-15T00:09:49.432Z,52.10
2019-03-15T00:11:57.098Z,44.00
2019-03-15T00:14:04.982Z,53.63
2019-03-15T00:16:12.553Z,49.55
2019-03-15T00:18:20.125Z,56.60
2019-03-15T00:20:27.738Z,50.78
2019-03-15T00:22:35.305Z,54.55
2019-03-15T00:24:42.981Z,56.68
2019-03-15T00:26:50.737Z,49.35
2019-03-15T00:28:58.443Z,51.00
2019-03-15T00:31:06.246Z,49.05
2019-03-15T00:33:14.047Z,48.38
2019-03-15T00:35:21.619Z,40.58
2019-03-15T00:37:29.195Z,46.60
2019-03-15T00:39:36.795Z,52.27
2019-03-15T00:41:44.365Z,55.45
2019-03-15T00:43:51.941Z,58.50
2019-03-15T00:45:59.643Z,53.60
2019-03-15T00:48:07.224Z,52.85
2019-03-15T00:50:15.301Z,45.50
2019-03-15T00:52:22.912Z,36.77
2019-03-15T00:54:30.688Z,39.90
2019-03-15T00:56:38.402Z,36.80
2019-03-15T00:58:46.950Z,34.45
2019-03-15T01:00:54.521Z,35.98
2019-03-15T01:03:02.561Z,33.67
2019-03-15T01:05:10.348Z,39.20
2019-03-15T01:07:18.027Z,36.80
2019-03-15T01:09:25.608Z,35.15
2019-03-15T01:11:33.298Z,43.80
2019-03-15T01:13:40.787Z,39.13
2019-03-15T01:15:48.454Z,40.75
2019-03-15T01:17:56.191Z,36.77
2019-03-15T01:20:05.200Z,35.80
2019-03-15T01:22:12.671Z,38.63
2019-03-15T01:24:20.371Z,39.05
2019-03-15T01:26:28.003Z,37.15
2019-03-15T01:28:35.572Z,37.40
2019-03-15T01:30:43.412Z,38.02
2019-03-15T01:32:51.083Z,39.60
2019-03-15T01:34:58.667Z,38.17
2019-03-15T01:37:06.355Z,36.73
2019-03-15T01:39:14.129Z,36.98
2019-03-15T01:41:21.707Z,36.63
2019-03-15T01:43:30.601Z,39.30
2019-03-15T01:45:38.172Z,43.05
2019-03-15T01:47:45.809Z,38.20
2019-03-15T01:49:53.510Z,41.18
2019-03-15T01:52:01.286Z,44.93
2019-03-15T01:54:08.993Z,43.48
2019-03-15T01:56:16.585Z,39.20
2019-03-15T01:58:24.174Z,37.28
2019-03-15T02:00:31.878Z,39.58
2019-03-15T02:02:39.648Z,41.08
2019-03-15T02:04:47.289Z,40.95
2019-03-15T02:06:54.965Z,38.98
2019-03-15T02:09:02.665Z,36.48
2019-03-15T02:11:10.332Z,36.68
2019-03-15T02:13:18.173Z,42.98
2019-03-15T02:15:25.784Z,39.13
2019-03-15T02:17:33.353Z,36.45
2019-03-15T02:19:41.091Z,28.92
2019-03-15T02:21:48.702Z,29.63
2019-03-15T02:23:57.494Z,28.80
2019-03-15T02:26:05.114Z,24.67
2019-03-15T02:28:12.812Z,23.95
2019-03-15T02:30:20.382Z,22.62
2019-03-15T02:32:29.022Z,21.35
2019-03-15T02:34:36.613Z,16.37
2019-03-15T02:36:44.353Z,17.25
2019-03-15T02:38:54.137Z,16.75
2019-03-15T02:41:02.159Z,17.62
2019-03-15T02:43:10.034Z,17.57
2019-03-15T02:45:17.780Z,19.05
2019-03-15T02:47:25.583Z,18.32
2019-03-15T02:49:34.840Z,19.00
2019-03-15T02:51:42.774Z,17.40
2019-03-15T02:53:50.446Z,18.12
2019-03-15T02:55:58.010Z,17.17
2019-03-15T02:58:05.820Z,17.15
2019-03-15T03:00:13.996Z,16.32
2019-03-15T03:02:22.797Z,16.23
2019-03-15T03:04:30.468Z,17.23
2019-03-15T03:06:38.164Z,17.15
2019-03-15T03:08:45.810Z,18.30
2019-03-15T03:10:53.452Z,20.00
2019-03-15T03:13:01.133Z,14.83
2019-03-15T03:15:09.445Z,22.22
2019-03-15T03:17:17.081Z,17.52
2019-03-15T03:19:24.674Z,15.55
2019-03-15T03:21:32.381Z,17.40
2019-03-15T03:23:40.016Z,19.65
2019-03-15T03:25:47.653Z,18.23
2019-03-15T03:27:55.224Z,17.48
2019-03-15T03:30:03.285Z,20.25
2019-03-15T03:32:12.661Z,18.50
2019-03-15T03:34:20.241Z,20.77
2019-03-15T03:36:27.890Z,23.22
2019-03-15T03:38:35.887Z,22.80
2019-03-15T03:40:43.534Z,19.40
2019-03-15T03:42:51.099Z,21.62
2019-03-15T03:44:58.701Z,24.43
2019-03-15T03:47:06.272Z,26.23
2019-03-15T03:49:14.196Z,24.37
2019-03-15T03:51:21.945Z,26.12
2019-03-15T03:53:29.511Z,21.90
2019-03-15T03:55:37.081Z,23.22
2019-03-15T03:57:44.791Z,19.87
2019-03-15T03:59:52.434Z,21.60
2019-03-15T04:02:00.002Z,20.02
2019-03-15T04:04:09.739Z,18.75
2019-03-15T04:06:17.379Z,17.15
2019-03-15T04:08:26.242Z,17.98
2019-03-15T04:10:33.943Z,18.10
2019-03-15T04:12:41.620Z,19.35
2019-03-15T04:14:50.489Z,18.20
2019-03-15T04:16:58.092Z,19.65
2019-03-15T04:19:08.667Z,18.05
2019-03-15T04:21:16.230Z,18.80
2019-03-15T04:23:23.869Z,21.12
2019-03-15T04:25:31.539Z,17.73
2019-03-15T04:27:39.214Z,16.77
2019-03-15T04:29:46.880Z,18.65
2019-03-15T04:31:54.519Z,20.23
2019-03-15T04:34:02.092Z,16.85
2019-03-15T04:36:09.737Z,19.35
2019-03-15T04:38:17.475Z,17.77
2019-03-15T04:40:25.050Z,18.82
2019-03-15T04:42:32.924Z,19.95
2019-03-15T04:44:40.632Z,17.90
2019-03-15T04:46:48.390Z,19.20
2019-03-15T04:48:56.082Z,17.02
2019-03-15T04:51:03.757Z,22.25
2019-03-15T04:53:11.351Z,23.87
2019-03-15T04:55:19.047Z,19.60
2019-03-15T04:57:26.615Z,21.10
2019-03-15T04:59:34.193Z,21.70
2019-03-15T05:01:41.888Z,24.18
2019-03-15T05:03:49.462Z,21.95
2019-03-15T05:06:03.312Z,19.48
2019-03-15T05:08:07.183Z,24.87
2019-03-15T05:10:14.856Z,25.00
2019-03-15T05:12:22.426Z,30.65
2019-03-15T05:14:30.103Z,26.73
2019-03-15T05:16:37.776Z,28.15
2019-03-15T05:18:48.900Z,23.85
2019-03-15T05:20:57.071Z,28.85
2019-03-15T05:23:04.744Z,28.45
2019-03-15T05:25:12.615Z,26.70
2019-03-15T05:27:20.214Z,28.80
2019-03-15T05:29:27.795Z,36.73
2019-03-15T05:31:35.520Z,41.20
2019-03-15T05:33:43.193Z,42.23
2019-03-15T05:35:50.877Z,51.48
2019-03-15T05:37:58.591Z,57.25
2019-03-15T05:40:08.117Z,60.70
2019-03-15T05:42:15.738Z,61.10
2019-03-15T05:44:23.413Z,63.02
2019-03-15T05:46:31.482Z,63.80
2019-03-15T05:48:39.053Z,65.22
2019-03-15T05:50:46.727Z,67.05
2019-03-15T05:52:54.420Z,64.87
2019-03-15T05:55:01.988Z,53.63
2019-03-15T05:57:09.660Z,65.62
2019-03-15T05:59:17.251Z,59.60
2019-03-15T06:01:24.827Z,40.03
2019-03-15T06:03:32.407Z,44.88
2019-03-15T06:05:40.176Z,49.73
2019-03-15T06:07:48.685Z,32.10
2019-03-15T06:09:56.334Z,30.82
2019-03-15T06:12:03.926Z,29.00
2019-03-15T06:14:11.500Z,28.85
2019-03-15T06:16:19.088Z,30.00
2019-03-15T06:18:26.764Z,33.60
2019-03-15T06:20:34.573Z,30.23
2019-03-15T06:22:42.140Z,26.37
2019-03-15T06:24:49.808Z,28.55
2019-03-15T06:26:58.673Z,27.13
2019-03-15T06:29:06.351Z,30.25
2019-03-15T06:31:15.227Z,36.00
2019-03-15T06:33:22.871Z,35.85
2019-03-15T06:35:31.512Z,37.13
2019-03-15T06:37:39.175Z,29.37
2019-03-15T06:39:47.823Z,27.95
2019-03-15T06:41:55.474Z,28.55
2019-03-15T06:44:03.091Z,27.25
2019-03-15T06:46:10.762Z,28.73
2019-03-15T06:48:18.335Z,26.60
2019-03-15T06:50:26.037Z,23.85
2019-03-15T06:52:33.612Z,28.92
2019-03-15T06:54:41.185Z,26.57
2019-03-15T06:56:48.823Z,27.22
2019-03-15T06:58:56.570Z,25.27
2019-03-15T07:01:04.246Z,26.68
2019-03-15T07:03:13.002Z,27.93
2019-03-15T07:05:20.985Z,21.68
2019-03-15T07:07:28.734Z,23.30
2019-03-15T07:09:38.364Z,20.72
2019-03-15T07:11:47.120Z,22.50
2019-03-15T07:13:54.699Z,23.87
2019-03-15T07:16:02.404Z,19.92
2019-03-15T07:18:10.143Z,17.50
2019-03-15T07:20:18.175Z,11.38
2019-03-15T07:22:25.779Z,20.80
2019-03-15T07:24:33.347Z,21.70
2019-03-15T07:26:43.647Z,16.00
2019-03-15T07:28:50.315Z,11.43
2019-03-15T07:30:57.989Z,13.30
2019-03-15T07:33:05.752Z,13.98
2019-03-15T07:35:13.704Z,5.78
2019-03-15T07:37:22.310Z,12.80
2019-03-15T07:39:29.980Z,11.45
2019-03-15T07:41:37.712Z,10.10
2019-03-15T07:43:45.484Z,19.75
2019-03-15T07:45:53.267Z,14.10
2019-03-15T07:48:00.964Z,16.10
2019-03-15T07:50:14.719Z,10.50
2019-03-15T07:52:23.363Z,16.20
2019-03-15T07:54:37.988Z,17.25
2019-03-15T08:45:23.991Z,9.98
2019-03-15T08:47:33.194Z,11.30
2019-03-15T08:49:40.858Z,12.93
2019-03-15T08:51:48.571Z,12.88
2019-03-15T08:53:56.234Z,12.20
2019-03-15T08:56:04.034Z,11.80
2019-03-15T08:58:15.826Z,5.40
2019-03-15T09:00:21.383Z,11.55
2019-03-15T09:02:29.020Z,4.97
2019-03-15T09:04:36.694Z,9.88
2019-03-15T09:06:44.424Z,7.05
2019-03-15T09:08:52.083Z,13.30
2019-03-15T09:11:00.011Z,3.52
2019-03-15T09:13:07.569Z,6.17
2019-03-15T09:15:15.676Z,6.95
2019-03-15T09:17:23.446Z,8.25
2019-03-15T09:19:32.142Z,9.33
2019-03-15T09:21:39.720Z,10.35
2019-03-15T09:23:47.388Z,9.83
2019-03-15T09:25:55.992Z,7.72
2019-03-15T09:28:04.595Z,9.30
2019-03-15T09:30:23.106Z,7.00
2019-03-15T09:32:24.825Z,8.28
2019-03-15T09:34:32.451Z,8.93
2019-03-15T09:36:50.098Z,9.03
2019-03-15T09:38:49.753Z,8.55
2019-03-15T09:40:57.335Z,13.58
2019-03-15T09:43:05.172Z,7.10
2019-03-15T09:45:16.212Z,10.70
2019-03-15T09:47:24.026Z,5.30
2019-03-15T09:49:31.614Z,7.72
2019-03-15T09:51:39.246Z,10.82
2019-03-15T09:53:46.919Z,11.93
2019-03-15T09:55:54.681Z,8.15
2019-03-15T09:58:02.537Z,7.67
2019-03-15T10:00:21.233Z,7.10
2019-03-15T10:02:30.695Z,7.58
2019-03-15T10:04:38.194Z,10.18
2019-03-15T10:06:45.713Z,7.97
2019-03-15T10:08:53.453Z,5.78
2019-03-15T10:11:01.088Z,7.78
2019-03-15T10:13:08.750Z,5.17
2019-03-15T10:15:19.485Z,8.08
2019-03-15T10:17:27.294Z,7.20
2019-03-15T10:19:34.947Z,10.05
2019-03-15T10:21:42.762Z,9.15
2019-03-15T10:23:50.324Z,5.83
2019-03-15T10:25:57.876Z,9.60
2019-03-15T10:28:05.622Z,9.08
2019-03-15T10:30:22.880Z,10.10
2019-03-15T10:32:30.687Z,10.85
2019-03-15T10:34:38.358Z,10.58
2019-03-15T10:36:45.920Z,9.53
2019-03-15T10:38:53.661Z,6.37
2019-03-15T10:41:01.547Z,12.95
2019-03-15T10:43:09.413Z,5.92
2019-03-15T10:45:16.980Z,13.78
2019-03-15T10:47:24.646Z,10.53
2019-03-15T10:49:33.290Z,9.95
2019-03-15T10:51:40.932Z,11.25
2019-03-15T10:53:48.703Z,13.32
2019-03-15T10:56:00.540Z,13.32
2019-03-15T10:58:05.782Z,10.75
2019-03-15T11:00:22.159Z,8.18
2019-03-15T11:02:29.976Z,7.75
2019-03-15T11:04:37.536Z,10.03
2019-03-15T11:06:45.222Z,11.50
2019-03-15T11:08:52.886Z,8.28
2019-03-15T11:11:00.440Z,9.05
2019-03-15T11:13:08.285Z,8.83
2019-03-15T11:15:16.974Z,11.10
2019-03-15T11:17:24.606Z,8.58
2019-03-15T11:19:32.205Z,9.83
2019-03-15T11:21:39.960Z,9.40
2019-03-15T11:23:47.522Z,8.00
2019-03-15T11:25:55.123Z,10.15
2019-03-15T11:28:02.758Z,8.88
2019-03-15T11:30:13.406Z,10.98
2019-03-15T11:32:21.122Z,9.38
2019-03-15T11:34:28.911Z,7.45
2019-03-15T11:36:36.602Z,5.33
2019-03-15T11:38:44.460Z,10.63
2019-03-15T11:40:52.028Z,11.35
2019-03-15T11:42:59.696Z,8.38
2019-03-15T11:45:10.022Z,6.85
2019-03-15T11:47:17.784Z,9.38
2019-03-15T11:49:28.323Z,10.63
2019-03-15T11:51:36.186Z,11.20
2019-03-15T11:53:45.114Z,20.85
2019-03-15T11:55:52.840Z,15.43
2019-03-15T11:58:00.600Z,17.50
2019-03-15T12:00:16.808Z,19.32
2019-03-15T12:02:24.456Z,17.67
2019-03-15T12:04:32.306Z,13.53
2019-03-15T12:06:40.952Z,16.87
2019-03-15T12:08:48.611Z,12.88
2019-03-15T12:10:56.313Z,13.48
2019-03-15T12:13:04.044Z,17.20
2019-03-15T12:15:14.906Z,14.05
2019-03-15T12:17:22.502Z,9.13
2019-03-15T12:19:30.254Z,9.55
2019-03-15T12:21:37.808Z,11.78
2019-03-15T12:23:45.474Z,12.47
2019-03-15T12:25:53.222Z,15.43
2019-03-15T12:28:00.952Z,12.78
2019-03-15T12:30:16.595Z,12.82
2019-03-15T12:32:24.202Z,10.78
2019-03-15T12:34:31.888Z,13.03
2019-03-15T12:36:39.605Z,10.82
2019-03-15T12:38:47.249Z,12.98
2019-03-15T12:40:54.902Z,14.60
2019-03-15T12:43:02.661Z,13.32
2019-03-15T12:45:12.226Z,14.63
2019-03-15T12:47:19.867Z,13.13
2019-03-15T12:49:27.853Z,15.80
2019-03-15T12:51:35.761Z,15.08
2019-03-15T12:53:43.333Z,19.00
2019-03-15T12:55:51.047Z,15.50
2019-03-15T12:57:58.753Z,14.03
2019-03-15T13:00:17.143Z,18.45
2019-03-15T13:02:24.843Z,15.83
2019-03-15T13:04:32.520Z,15.32
2019-03-15T13:06:40.173Z,14.95
2019-03-15T13:08:47.845Z,15.55
2019-03-15T13:10:56.717Z,19.12
2019-03-15T13:13:04.482Z,14.28
2019-03-15T13:15:14.838Z,15.32
2019-03-15T13:17:22.482Z,15.43
2019-03-15T13:19:30.173Z,15.63
2019-03-15T13:21:38.022Z,15.72
2019-03-15T13:23:45.596Z,11.57
2019-03-15T13:25:54.650Z,11.95
2019-03-15T13:28:02.765Z,13.40
2019-03-15T13:30:19.643Z,13.80
2019-03-15T13:32:27.352Z,10.95
2019-03-15T13:34:35.093Z,10.80
2019-03-15T13:36:42.783Z,14.13
2019-03-15T13:38:50.438Z,14.95
2019-03-15T13:40:59.127Z,12.68
2019-03-15T13:43:06.962Z,11.95
2019-03-15T13:45:18.147Z,12.28
2019-03-15T13:47:26.108Z,16.25
2019-03-15T13:49:35.112Z,13.40
2019-03-15T13:51:43.228Z,15.88
2019-03-15T13:53:51.010Z,15.58
2019-03-15T13:55:58.782Z,16.15
2019-03-15T13:58:06.361Z,17.62
2019-03-15T14:00:19.156Z,14.18
2019-03-15T14:02:27.674Z,15.10
2019-03-15T14:04:35.290Z,13.68
2019-03-15T14:06:43.007Z,12.40
2019-03-15T14:08:51.648Z,12.98
2019-03-15T14:10:59.332Z,15.18
2019-03-15T14:13:07.021Z,14.65
2019-03-15T14:15:17.755Z,14.00
2019-03-15T14:17:25.536Z,14.90
2019-03-15T14:19:34.435Z,18.40
2019-03-15T14:21:42.099Z,11.57
2019-03-15T14:23:49.980Z,13.32
2019-03-15T14:25:57.659Z,14.15
2019-03-15T14:28:05.395Z,15.48
2019-03-15T14:30:14.757Z,15.70
2019-03-15T14:32:22.425Z,16.67
2019-03-15T14:34:30.100Z,17.45
2019-03-15T14:36:37.941Z,16.07
2019-03-15T14:38:47.033Z,17.82
2019-03-15T14:40:54.866Z,17.12
2019-03-15T14:43:02.675Z,19.02
2019-03-15T14:45:15.858Z,19.45
2019-03-15T14:47:23.648Z,18.75
2019-03-15T14:49:31.322Z,22.20
2019-03-15T14:51:39.773Z,26.33
2019-03-15T14:53:47.420Z,21.10
2019-03-15T14:55:55.164Z,19.05
2019-03-15T14:58:02.944Z,18.40
2019-03-15T15:00:17.117Z,15.32
2019-03-15T15:02:24.698Z,17.52
2019-03-15T15:04:32.308Z,19.48
2019-03-15T15:06:39.986Z,17.52
2019-03-15T15:08:48.537Z,17.65
2019-03-15T15:10:56.146Z,17.45
2019-03-15T15:13:03.827Z,17.67
2019-03-15T15:15:14.014Z,16.12
2019-03-15T15:17:21.812Z,19.40
2019-03-15T15:19:29.490Z,17.32
2019-03-15T15:21:37.200Z,19.37
2019-03-15T15:23:44.971Z,20.15
2019-03-15T15:25:52.538Z,18.30
2019-03-15T15:28:04.644Z,16.73
2019-03-15T15:30:15.103Z,19.70
2019-03-15T15:32:22.779Z,22.80
2019-03-15T15:34:30.355Z,19.17
2019-03-15T15:36:38.037Z,23.45
2019-03-15T15:38:45.812Z,24.70
2019-03-15T15:40:53.483Z,24.45
2019-03-15T15:43:01.346Z,24.52
2019-03-15T15:45:11.335Z,23.83
2019-03-15T15:47:18.910Z,21.60
2019-03-15T15:49:26.512Z,23.25
2019-03-15T15:51:34.155Z,20.97
2019-03-15T15:53:41.902Z,15.60
2019-03-15T15:55:49.619Z,22.55
2019-03-15T15:57:57.457Z,20.85
2019-03-15T16:00:18.408Z,25.12
2019-03-15T16:02:26.253Z,22.22
2019-03-15T16:04:35.052Z,27.00
2019-03-15T16:06:42.716Z,16.02
2019-03-15T16:08:50.512Z,14.75
2019-03-15T16:10:58.130Z,19.52
2019-03-15T16:13:16.606Z,27.20
2019-03-15T16:15:17.380Z,26.45
2019-03-15T16:17:26.244Z,33.63
2019-03-15T16:19:34.040Z,36.48
2019-03-15T16:21:41.814Z,21.20
2019-03-15T16:23:49.486Z,26.82
2019-03-15T16:25:57.055Z,23.15
2019-03-15T16:28:04.654Z,24.40
2019-03-15T16:30:20.257Z,23.70
2019-03-15T16:32:27.945Z,25.02
2019-03-15T16:34:35.859Z,29.35
2019-03-15T16:36:43.504Z,24.75
2019-03-15T16:38:51.182Z,31.93
2019-03-15T16:40:58.784Z,24.67
2019-03-15T16:43:06.503Z,28.40
2019-03-15T16:45:31.571Z,36.48
2019-03-15T16:47:39.370Z,45.43
2019-03-15T16:49:46.967Z,46.77
2019-03-15T16:51:54.628Z,38.80
2019-03-15T16:54:03.162Z,30.02
2019-03-15T16:56:10.732Z,41.80
2019-03-15T16:58:18.508Z,43.65
2019-03-15T17:00:26.202Z,48.70
2019-03-15T17:02:33.851Z,47.13
2019-03-15T17:04:41.429Z,62.73
2019-03-15T17:06:49.034Z,59.48
2019-03-15T17:08:56.619Z,65.32
2019-03-15T17:11:04.275Z,50.35
2019-03-15T17:13:12.054Z,52.93
2019-03-15T17:15:25.529Z,53.20
2019-03-15T17:17:33.106Z,43.92
2019-03-15T17:19:40.885Z,41.58
2019-03-15T17:21:48.467Z,36.93
2019-03-15T17:23:56.155Z,40.98
2019-03-15T17:26:03.741Z,43.25
2019-03-15T17:28:11.485Z,43.50
2019-03-15T17:30:19.566Z,46.83
2019-03-15T17:32:27.355Z,60.00
2019-03-15T17:34:34.952Z,54.55
2019-03-15T17:36:42.660Z,56.58
2019-03-15T17:38:51.556Z,47.43
2019-03-15T17:40:59.202Z,48.70
2019-03-15T17:43:09.189Z,46.92
2019-03-15T17:45:16.939Z,39.95
2019-03-15T17:47:24.514Z,44.80
2019-03-15T17:49:32.273Z,41.00
2019-03-15T17:51:39.992Z,43.33
2019-03-15T17:53:47.731Z,49.08
2019-03-15T17:55:56.100Z,54.50
2019-03-15T17:58:03.832Z,56.42
2019-03-15T18:00:25.148Z,54.30
2019-03-15T18:02:32.902Z,51.73
2019-03-15T18:04:40.595Z,53.10
2019-03-15T18:06:48.235Z,48.73
2019-03-15T18:08:55.885Z,44.83
2019-03-15T18:11:03.488Z,51.53
2019-03-15T18:13:11.268Z,47.45
2019-03-15T18:15:20.202Z,49.65
2019-03-15T18:17:27.981Z,52.58
2019-03-15T18:19:37.400Z,53.90
2019-03-15T18:21:44.955Z,49.40
2019-03-15T18:23:52.766Z,48.50
2019-03-15T18:26:01.590Z,44.95
2019-03-15T18:28:09.231Z,43.60
2019-03-15T18:30:17.882Z,43.17
2019-03-15T18:32:25.651Z,44.23
2019-03-15T18:34:33.398Z,49.38
2019-03-15T18:36:43.097Z,50.40
2019-03-15T18:38:50.445Z,51.58
2019-03-15T18:40:58.026Z,52.03
2019-03-15T18:43:06.059Z,67.53
2019-03-15T18:45:16.548Z,96.97
2019-03-15T18:47:24.268Z,111.90
2019-03-15T18:49:32.026Z,94.58
2019-03-15T18:51:39.609Z,88.10
2019-03-15T18:53:47.326Z,79.12
2019-03-15T18:55:54.994Z,78.92
2019-03-15T18:58:02.724Z,66.55
2019-03-15T19:00:20.912Z,64.47
2019-03-15T19:02:28.705Z,65.17
2019-03-15T19:04:36.354Z,61.40
2019-03-15T19:06:43.927Z,60.10
2019-03-15T19:08:51.736Z,62.80
2019-03-15T19:10:59.311Z,62.85
2019-03-15T19:13:06.956Z,62.23
2019-03-15T19:15:19.963Z,59.33
2019-03-15T19:17:26.778Z,57.85
2019-03-15T19:19:33.819Z,53.78
2019-03-15T19:21:41.568Z,43.50
2019-03-15T19:23:50.272Z,34.33
2019-03-15T19:25:57.951Z,39.85
2019-03-15T19:28:05.656Z,38.25
2019-03-15T19:30:20.195Z,37.23
2019-03-15T19:32:28.176Z,39.10
2019-03-15T19:34:35.807Z,40.38
2019-03-15T19:36:43.650Z,39.13
2019-03-15T19:38:51.224Z,43.52
2019-03-15T19:40:58.859Z,39.58
2019-03-15T19:43:06.596Z,42.48
2019-03-15T19:45:15.889Z,41.58
2019-03-15T19:47:24.563Z,39.98
2019-03-15T19:49:33.210Z,42.67
2019-03-15T19:51:40.783Z,35.25
2019-03-15T19:53:48.390Z,33.60
2019-03-15T19:55:56.208Z,36.95
2019-03-15T19:58:03.938Z,40.00
2019-03-15T20:00:15.502Z,35.85
2019-03-15T20:02:23.334Z,34.13
2019-03-15T20:04:31.082Z,35.83
2019-03-15T20:06:38.690Z,35.13
2019-03-15T20:08:46.273Z,35.70
2019-03-15T20:10:56.660Z,34.75
2019-03-15T20:13:04.605Z,35.68
2019-03-15T20:15:17.059Z,36.83
2019-03-15T20:17:24.696Z,34.48
2019-03-15T20:19:32.369Z,37.60
2019-03-15T20:21:39.939Z,36.85
2019-03-15T20:23:47.721Z,39.50
2019-03-15T20:25:56.468Z,41.88
2019-03-15T20:28:04.407Z,36.53
2019-03-15T20:30:25.572Z,39.27
2019-03-15T20:32:31.281Z,36.13
2019-03-15T20:34:39.011Z,44.00
2019-03-15T20:36:46.599Z,46.28
2019-03-15T20:38:54.371Z,43.35
2019-03-15T20:41:02.023Z,41.40
2019-03-15T20:43:09.776Z,42.20
2019-03-15T20:45:28.978Z,41.65
2019-03-15T20:47:36.799Z,43.48
2019-03-15T20:49:44.370Z,43.83
2019-03-15T20:51:52.205Z,40.33
2019-03-15T20:53:59.929Z,37.23
2019-03-15T20:56:07.487Z,34.83
2019-03-15T20:58:17.180Z,35.30
2019-03-15T21:00:34.828Z,38.15
2019-03-15T21:02:34.095Z,35.90
2019-03-15T21:04:41.794Z,31.60
2019-03-15T21:06:49.408Z,37.13
2019-03-15T21:08:56.980Z,34.30
2019-03-15T21:11:04.598Z,37.83
2019-03-15T21:13:12.737Z,32.45
2019-03-15T21:15:20.384Z,34.45
2019-03-15T21:17:27.988Z,35.25
2019-03-15T21:19:35.642Z,39.05
2019-03-15T21:21:43.446Z,36.40
2019-03-15T21:23:51.149Z,41.18
2019-03-15T21:25:58.728Z,40.30
2019-03-15T21:28:06.418Z,34.58
2019-03-15T21:30:23.263Z,33.80
2019-03-15T21:32:30.839Z,38.35
2019-03-15T21:34:38.412Z,32.60
2019-03-15T21:36:46.274Z,34.50
2019-03-15T21:38:53.932Z,32.10
2019-03-15T21:41:01.662Z,30.08
2019-03-15T21:43:10.425Z,26.23
2019-03-15T21:45:18.108Z,29.55
2019-03-15T21:47:25.965Z,31.45
2019-03-15T21:49:35.336Z,29.15
2019-03-15T21:51:42.832Z,31.50
2019-03-15T21:53:50.499Z,32.45
2019-03-15T21:55:58.092Z,29.45
2019-03-15T21:58:05.773Z,29.05
2019-03-15T22:00:20.893Z,28.05
2019-03-15T22:02:28.502Z,27.35
2019-03-15T22:04:36.085Z,27.37
2019-03-15T22:06:43.662Z,33.02
2019-03-15T22:08:51.506Z,26.20
2019-03-15T22:10:59.076Z,26.23
2019-03-15T22:13:06.834Z,23.87
2019-03-15T22:15:15.339Z,24.00
2019-03-15T22:17:22.943Z,27.73
2019-03-15T22:19:30.877Z,28.52
2019-03-15T22:21:39.829Z,21.85
2019-03-15T22:23:47.401Z,25.20
2019-03-15T22:25:56.267Z,26.17
2019-03-15T22:28:04.033Z,27.87
2019-03-15T22:30:14.862Z,24.15
2019-03-15T22:32:22.431Z,29.05
2019-03-15T22:34:30.199Z,27.55
2019-03-15T22:36:39.062Z,27.32
2019-03-15T22:38:46.808Z,28.00
2019-03-15T22:40:54.680Z,24.70
2019-03-15T22:43:02.459Z,26.48
2019-03-15T22:45:12.102Z,23.47
2019-03-15T22:47:19.679Z,22.82
2019-03-15T22:49:27.326Z,27.30
2019-03-15T22:51:35.011Z,26.42
2019-03-15T22:53:42.629Z,26.12
2019-03-15T22:55:50.373Z,30.02
2019-03-15T22:58:00.161Z,30.00
2019-03-15T23:00:17.090Z,33.33
2019-03-15T23:02:26.267Z,37.73
2019-03-15T23:04:33.843Z,37.45
2019-03-15T23:06:41.558Z,35.88
2019-03-15T23:08:50.329Z,40.15
2019-03-15T23:10:58.104Z,34.30
2019-03-15T23:13:05.736Z,33.83
2019-03-15T23:15:13.482Z,30.35
2019-03-15T23:17:21.110Z,27.22
2019-03-15T23:19:29.999Z,28.12
2019-03-15T23:21:37.582Z,22.07
2019-03-15T23:23:45.234Z,22.62
2019-03-15T23:25:53.004Z,23.67
2019-03-15T23:28:00.957Z,24.75
2019-03-15T23:30:14.586Z,28.50
2019-03-15T23:32:22.217Z,24.80
2019-03-15T23:34:29.793Z,23.60
2019-03-15T23:36:37.368Z,23.90
2019-03-15T23:38:45.365Z,20.82
2019-03-15T23:40:52.939Z,26.90
2019-03-15T23:43:00.512Z,21.65
2019-03-15T23:45:10.857Z,21.80
2019-03-15T23:47:18.566Z,20.70
2019-03-15T23:49:26.240Z,19.45
2019-03-15T23:51:34.279Z,25.20
2019-03-15T23:53:42.827Z,22.35
2019-03-15T23:55:50.671Z,23.25
2019-03-15T23:57:58.569Z,23.65
